Time;durP1;ratioP1;P1;durP2;ratioP2;P2;SDS_P1;SDS_P2;PMS_P1;PMS_P2;Temp;Humidity;BMP_temperature;BMP_pressure;BME280_temperature;BME280_humidity;BME280_pressure;Samples;Min_cycle;Max_cycle;Signal;HPM_P1;HPM_P2
2023/09/28 00:03:01;;;;;;;4.22;2.70;;;;;;;20.12;38.70;101017.69;5034942;28;19991;-81
2023/09/28 00:05:28;;;;;;;3.63;2.67;;;;;;;20.17;38.62;101020.75;5036569;28;20537;-81
2023/09/28 00:07:57;;;;;;;3.97;3.22;;;;;;;20.17;38.54;101029.94;5032500;28;20052;-82
2023/09/28 00:10:24;;;;;;;5.30;2.72;;;;;;;20.18;38.27;101041.94;5029591;28;20127;-82
2023/09/28 00:12:54;;;;;;;3.50;2.55;;;;;;;20.22;38.29;101046.03;5049212;28;20049;-82
2023/09/28 00:15:24;;;;;;;3.38;2.70;;;;;;;20.21;38.49;101044.28;5050984;28;20045;-82
2023/09/28 00:17:52;;;;;;;3.95;2.97;;;;;;;20.20;38.51;101046.22;5032749;28;20061;-82
2023/09/28 00:20:20;;;;;;;3.45;2.53;;;;;;;20.21;38.72;101053.50;5050361;28;20104;-81
2023/09/28 00:22:49;;;;;;;4.55;2.88;;;;;;;20.21;38.50;101049.84;5034983;28;20045;-81
2023/09/28 00:25:16;;;;;;;3.88;2.83;;;;;;;20.22;38.73;101046.03;5034267;28;20049;-82
2023/09/28 00:27:46;;;;;;;4.95;3.20;;;;;;;20.22;38.74;101046.88;5037121;28;20100;-82
2023/09/28 00:30:18;;;;;;;4.20;3.08;;;;;;;20.23;38.50;101065.28;5031435;28;20069;-82
2023/09/28 00:32:46;;;;;;;4.13;2.92;;;;;;;20.22;38.44;101071.91;5032301;28;20053;-82
2023/09/28 00:35:14;;;;;;;5.07;3.00;;;;;;;20.23;38.60;101079.19;5031151;28;20529;-82
2023/09/28 00:37:42;;;;;;;4.40;2.95;;;;;;;20.23;38.34;101079.19;5041834;28;20056;-82
2023/09/28 00:40:18;;;;;;;3.85;2.97;;;;;;;20.25;38.45;101077.09;5034870;28;20045;-82
2023/09/28 00:42:48;;;;;;;3.92;2.95;;;;;;;20.23;38.47;101070.84;5028762;28;20061;-82
2023/09/28 00:45:18;;;;;;;3.83;2.88;;;;;;;20.26;38.69;101062.13;5031221;28;20247;-82
2023/09/28 00:47:47;;;;;;;4.28;3.20;;;;;;;20.25;38.64;101054.00;5031085;28;20120;-82
2023/09/28 00:50:15;;;;;;;5.22;3.00;;;;;;;20.26;38.81;101061.28;5031090;28;20479;-82
2023/09/28 00:52:46;;;;;;;3.50;2.80;;;;;;;20.26;38.50;101045.47;5040410;28;20049;-82
2023/09/28 00:55:15;;;;;;;5.13;3.47;;;;;;;20.26;38.27;101045.47;5032079;28;20057;-81
2023/09/28 00:57:44;;;;;;;4.88;3.10;;;;;;;20.24;38.48;101055.03;5036357;28;20044;-81
2023/09/28 01:00:23;;;;;;;4.70;3.20;;;;;;;20.24;38.24;101043.91;5028917;28;20060;-82
2023/09/28 01:02:55;;;;;;;4.22;2.88;;;;;;;20.23;38.29;101056.09;5030299;28;20052;-81
2023/09/28 01:05:26;;;;;;;3.70;2.53;;;;;;;20.20;38.36;101053.72;5031200;28;20283;-80
2023/09/28 01:07:55;;;;;;;4.28;3.05;;;;;;;20.19;37.89;101041.75;5046540;28;20069;-80
2023/09/28 01:10:24;;;;;;;4.03;2.60;;;;;;;20.19;38.14;101040.88;5030729;28;20121;-80
2023/09/28 01:12:51;;;;;;;4.10;2.70;;;;;;;20.18;38.52;101050.25;5030875;28;20057;-80
2023/09/28 01:15:21;;;;;;;3.97;2.72;;;;;;;20.16;38.44;101053.22;5043982;28;20049;-81
2023/09/28 01:17:48;;;;;;;4.28;2.83;;;;;;;20.15;38.62;101051.50;5026536;28;20475;-82
2023/09/28 01:20:23;;;;;;;3.70;2.50;;;;;;;20.16;37.96;101053.22;5036965;28;20045;-82
2023/09/28 01:22:53;;;;;;;3.40;2.50;;;;;;;20.14;38.26;101049.78;5054736;28;20178;-81
2023/09/28 01:25:22;;;;;;;3.70;2.70;;;;;;;20.12;38.33;101051.03;5046762;28;20046;-81
2023/09/28 01:27:49;;;;;;;4.07;2.65;;;;;;;20.11;38.12;101049.31;5051163;28;20057;-81
2023/09/28 01:30:17;;;;;;;4.38;2.80;;;;;;;20.10;38.41;101042.03;5037498;28;20777;-80
2023/09/28 01:32:44;;;;;;;3.90;2.60;;;;;;;20.09;38.29;101040.31;5035676;28;20068;-80
2023/09/28 01:35:12;;;;;;;4.80;3.20;;;;;;;20.08;38.54;101050.56;5041509;28;20050;-79
2023/09/28 01:37:50;;;;;;;4.35;3.00;;;;;;;20.12;38.06;101056.59;5043059;28;20037;-83
2023/09/28 01:40:19;;;;;;;4.40;2.72;;;;;;;20.11;38.07;101065.97;5049978;28;20048;-78
2023/09/28 01:42:47;;;;;;;3.42;2.70;;;;;;;20.09;38.10;101056.97;5034910;28;20059;-80
2023/09/28 01:45:16;;;;;;;4.07;2.80;;;;;;;20.11;38.55;101058.50;5027625;28;20081;-80
2023/09/28 01:47:44;;;;;;;4.10;2.75;;;;;;;20.09;38.63;101052.28;5028094;28;20053;-80
2023/09/28 01:50:12;;;;;;;3.90;2.97;;;;;;;20.10;38.18;101056.78;5029688;28;20104;-81
2023/09/28 01:52:39;;;;;;;4.90;3.00;;;;;;;20.09;38.26;101052.28;5029791;28;20060;-82
2023/09/28 01:55:08;;;;;;;4.47;2.83;;;;;;;20.10;38.17;101048.44;5031535;28;20083;-81
2023/09/28 01:57:36;;;;;;;4.28;2.63;;;;;;;20.13;38.56;101047.19;5029622;28;20049;-81
2023/09/28 02:00:12;;;;;;;4.15;2.85;;;;;;;20.11;38.18;101057.66;5042984;28;20049;-81
2023/09/28 02:02:42;;;;;;;5.10;2.78;;;;;;;20.09;38.25;101060.63;5032854;28;20049;-81
2023/09/28 02:05:11;;;;;;;4.18;2.90;;;;;;;20.11;38.33;101058.50;5026882;28;20103;-81
2023/09/28 02:07:38;;;;;;;5.00;3.03;;;;;;;20.10;38.67;101056.78;5029747;28;20049;-82
2023/09/28 02:10:09;;;;;;;4.05;2.88;;;;;;;20.11;38.33;101052.97;5028453;28;20048;-82
2023/09/28 02:12:40;;;;;;;4.13;2.78;;;;;;;20.11;38.40;101058.50;5031337;28;20176;-82
2023/09/28 02:15:09;;;;;;;5.03;3.30;;;;;;;20.09;38.47;101055.06;5039122;28;20052;-82
2023/09/28 02:17:36;;;;;;;4.30;3.22;;;;;;;20.09;38.23;101045.84;5033480;28;20524;-83
2023/09/28 02:20:08;;;;;;;4.13;2.47;;;;;;;20.09;38.37;101051.41;5032077;28;20318;-83
2023/09/28 02:22:37;;;;;;;4.75;2.80;;;;;;;20.06;38.23;101058.22;5030790;28;20061;-81
2023/09/28 02:25:08;;;;;;;4.93;2.90;;;;;;;20.06;38.53;101055.44;5030071;28;20046;-81
2023/09/28 02:27:36;;;;;;;3.97;2.75;;;;;;;20.05;38.26;101056.47;5035974;28;20053;-81
2023/09/28 02:30:07;;;;;;;3.67;2.75;;;;;;;20.07;38.47;101059.94;5030767;28;20056;-81
2023/09/28 02:32:34;;;;;;;3.83;2.67;;;;;;;20.04;38.28;101053.91;5048176;28;20107;-81
2023/09/28 02:35:02;;;;;;;4.20;3.22;;;;;;;20.04;38.66;101067.81;5025656;28;20511;-81
2023/09/28 02:37:30;;;;;;;3.97;3.05;;;;;;;20.02;38.10;101066.09;5025660;28;20111;-80
2023/09/28 02:39:57;;;;;;;3.65;2.53;;;;;;;20.01;38.26;101075.47;5027496;28;20063;-80
2023/09/28 02:42:24;;;;;;;4.47;3.15;;;;;;;20.04;38.24;101081.69;5027501;28;20053;-81
2023/09/28 02:44:52;;;;;;;4.95;3.00;;;;;;;20.01;38.57;101071.81;5025431;28;20845;-81
2023/09/28 02:47:21;;;;;;;4.57;2.90;;;;;;;20.02;38.59;101071.63;5024646;28;20052;-81
2023/09/28 02:49:49;;;;;;;4.57;3.00;;;;;;;20.01;38.44;101082.94;5026754;28;20092;-80
2023/09/28 02:52:16;;;;;;;4.20;3.05;;;;;;;19.99;38.26;101080.34;5027837;28;20053;-81
2023/09/28 02:54:44;;;;;;;4.15;3.08;;;;;;;20.00;38.30;101078.44;5027158;28;20098;-81
2023/09/28 02:57:11;;;;;;;4.40;3.00;;;;;;;19.96;38.45;101077.94;5048452;28;20507;-80
2023/09/28 02:59:43;;;;;;;5.97;3.08;;;;;;;19.97;38.63;101076.03;5025917;28;20041;-82
2023/09/28 03:02:13;;;;;;;4.80;2.80;;;;;;;19.96;38.26;101082.63;5030736;28;20056;-82
2023/09/28 03:04:43;;;;;;;4.65;2.95;;;;;;;19.96;38.51;101089.03;5031708;28;20573;-80
2023/09/28 03:07:10;;;;;;;3.83;3.17;;;;;;;19.93;38.53;101080.25;5032659;28;20131;-82
2023/09/28 03:09:37;;;;;;;4.10;3.33;;;;;;;19.93;38.77;101097.78;5030590;28;20071;-80
2023/09/28 03:12:05;;;;;;;4.63;3.20;;;;;;;19.91;38.71;101088.75;5031539;28;20207;-81
2023/09/28 03:14:34;;;;;;;4.05;2.80;;;;;;;19.90;38.56;101097.25;5039350;28;20049;-81
2023/09/28 03:17:00;;;;;;;4.13;3.10;;;;;;;19.88;38.51;101100.22;5039149;28;20176;-81
2023/09/28 03:19:28;;;;;;;4.40;3.13;;;;;;;19.88;38.65;101099.34;5067014;28;20592;-80
2023/09/28 03:21:57;;;;;;;4.43;3.20;;;;;;;19.89;38.50;101103.84;5050486;28;20072;-81
2023/09/28 03:24:25;;;;;;;4.28;3.13;;;;;;;19.86;38.74;101098.69;5038855;28;20737;-80
2023/09/28 03:26:51;;;;;;;4.20;3.13;;;;;;;19.86;38.71;101095.91;5034017;28;20135;-82
2023/09/28 03:29:36;;;;;;;4.50;3.17;;;;;;;19.85;38.90;101105.31;5051332;28;20056;-80
2023/09/28 03:32:03;;;;;;;3.90;3.08;;;;;;;19.86;38.95;101107.03;5032967;28;20157;-81
2023/09/28 03:34:32;;;;;;;4.75;3.08;;;;;;;19.85;38.88;101105.31;5034866;28;20056;-81
2023/09/28 03:37:03;;;;;;;4.72;2.92;;;;;;;19.86;38.70;101109.81;5026523;28;20056;-81
2023/09/28 03:39:31;;;;;;;4.90;3.30;;;;;;;19.82;38.95;101111.22;5030204;28;20148;-80
2023/09/28 03:41:59;;;;;;;3.60;2.67;;;;;;;19.84;39.01;101123.88;5047719;28;20521;-81
2023/09/28 03:44:27;;;;;;;5.25;2.78;;;;;;;19.84;38.76;101120.25;5027136;28;20049;-79
2023/09/28 03:46:55;;;;;;;5.60;2.85;;;;;;;19.83;38.90;101119.38;5026083;28;20238;-80
2023/09/28 03:49:23;;;;;;;3.80;2.90;;;;;;;19.81;39.17;101123.38;5027962;28;20072;-80
2023/09/28 03:51:51;;;;;;;4.72;3.15;;;;;;;19.81;38.96;101127.03;5026013;28;20254;-80
2023/09/28 03:54:20;;;;;;;5.00;3.13;;;;;;;19.81;38.95;101129.78;5025614;28;20045;-80
2023/09/28 03:56:48;;;;;;;4.10;3.00;;;;;;;19.77;39.17;101130.38;5041528;28;20045;-81
2023/09/28 03:59:16;;;;;;;4.95;3.05;;;;;;;19.75;39.23;101129.69;5027197;28;20043;-81
2023/09/28 04:01:44;;;;;;;4.57;3.28;;;;;;;19.72;38.89;101118.94;5029564;28;20369;-81
2023/09/28 04:04:13;;;;;;;4.20;3.38;;;;;;;19.70;39.43;101132.19;5024720;28;20069;-82
2023/09/28 04:06:40;;;;;;;3.88;3.03;;;;;;;19.67;38.98;101141.75;5026464;28;20059;-81
2023/09/28 04:09:08;;;;;;;4.35;3.00;;;;;;;19.64;39.21;101131.00;5025819;28;20131;-81
2023/09/28 04:11:38;;;;;;;5.13;3.30;;;;;;;19.61;39.21;101132.25;5046359;28;20065;-81
2023/09/28 04:14:07;;;;;;;4.50;3.10;;;;;;;19.59;39.16;101139.03;5025075;28;20049;-81
2023/09/28 04:16:36;;;;;;;4.47;3.35;;;;;;;19.57;39.35;101147.53;5023602;28;20069;-81
2023/09/28 04:19:05;;;;;;;4.82;3.35;;;;;;;19.56;39.25;101147.72;5036783;28;20141;-81
2023/09/28 04:21:34;;;;;;;4.65;3.10;;;;;;;19.54;39.31;101155.41;5023694;28;20063;-81
2023/09/28 04:24:02;;;;;;;3.90;3.20;;;;;;;19.52;39.33;101160.28;5038882;28;20100;-81
2023/09/28 04:26:30;;;;;;;4.57;2.92;;;;;;;19.50;39.63;101149.34;5027651;28;20088;-82
2023/09/28 04:28:59;;;;;;;5.05;3.15;;;;;;;19.52;39.67;101150.03;5043211;28;20049;-82
2023/09/28 04:31:27;;;;;;;4.65;2.95;;;;;;;19.49;39.53;101152.31;5040131;28;20516;-81
2023/09/28 04:33:56;;;;;;;4.20;2.92;;;;;;;19.47;39.53;101154.41;5026122;28;20156;-81
2023/09/28 04:36:25;;;;;;;4.35;3.13;;;;;;;19.44;39.55;101158.44;5014011;28;20042;-82
2023/09/28 04:38:53;;;;;;;4.25;3.20;;;;;;;19.43;39.36;101155.81;5016789;28;20060;-82
2023/09/28 04:41:21;;;;;;;5.45;3.20;;;;;;;19.43;39.84;101156.69;5017639;28;20059;-83
2023/09/28 04:43:49;;;;;;;5.28;3.22;;;;;;;19.41;39.66;101155.16;5016371;28;20636;-82
2023/09/28 04:46:18;;;;;;;4.65;2.88;;;;;;;19.41;39.72;101153.22;5017393;28;20057;-83
2023/09/28 04:48:46;;;;;;;4.28;3.03;;;;;;;19.38;39.74;101159.13;5021090;28;20053;-82
2023/09/28 04:51:14;;;;;;;4.45;3.10;;;;;;;19.38;39.77;101161.09;5022309;28;20053;-83
2023/09/28 04:53:42;;;;;;;4.40;3.05;;;;;;;19.36;39.59;101150.16;5021874;28;20525;-83
2023/09/28 04:56:11;;;;;;;4.53;3.28;;;;;;;19.35;39.72;101156.75;5020402;28;20541;-82
2023/09/28 04:58:39;;;;;;;4.25;3.25;;;;;;;19.35;40.02;101172.53;5020134;28;20060;-84
2023/09/28 05:01:08;;;;;;;4.18;3.08;;;;;;;19.33;39.75;101180.19;5019022;28;20050;-80
2023/09/28 05:03:37;;;;;;;4.07;2.92;;;;;;;19.35;39.81;101180.88;5020085;28;20053;-82
2023/09/28 05:06:05;;;;;;;3.75;2.88;;;;;;;19.31;40.08;101169.25;5022992;28;20045;-82
2023/09/28 05:08:32;;;;;;;4.28;3.00;;;;;;;19.31;40.24;101174.81;5026496;28;20148;-81
2023/09/28 05:11:01;;;;;;;4.40;2.90;;;;;;;19.30;40.00;101175.84;5043689;28;20080;-79
2023/09/28 05:13:30;;;;;;;4.28;3.20;;;;;;;19.30;40.14;101175.84;5061908;28;20060;-80
2023/09/28 05:15:57;;;;;;;5.88;3.50;;;;;;;19.29;40.13;101174.16;5043229;28;20512;-80
2023/09/28 05:18:25;;;;;;;5.32;3.38;;;;;;;19.27;40.20;101173.47;5029786;28;20049;-82
2023/09/28 05:20:55;;;;;;;6.00;3.75;;;;;;;19.29;40.27;101178.84;5048700;28;20784;-81
2023/09/28 05:23:23;;;;;;;4.25;3.30;;;;;;;19.26;40.30;101180.06;5033400;28;20076;-80
2023/09/28 05:25:51;;;;;;;4.65;3.40;;;;;;;19.23;40.28;101174.88;5034284;28;20113;-81
2023/09/28 05:28:19;;;;;;;4.22;3.15;;;;;;;19.22;40.12;101175.91;5030165;28;20085;-82
2023/09/28 05:30:47;;;;;;;4.45;3.47;;;;;;;19.21;40.47;101180.59;5043698;28;20065;-81
2023/09/28 05:33:16;;;;;;;4.35;3.33;;;;;;;19.19;40.37;101173.50;5039308;28;20056;-83
2023/09/28 05:35:44;;;;;;;5.80;3.95;;;;;;;19.15;40.54;101164.66;5024968;28;20080;-83
2023/09/28 05:38:13;;;;;;;4.95;3.90;;;;;;;19.12;40.05;101162.25;5024878;28;20103;-83
2023/09/28 05:40:42;;;;;;;5.05;3.45;;;;;;;19.10;40.50;101175.44;5023093;28;20060;-82
2023/09/28 05:43:09;;;;;;;4.72;3.28;;;;;;;19.07;40.50;101178.56;5039804;28;20045;-82
2023/09/28 05:45:38;;;;;;;5.15;3.45;;;;;;;19.05;40.69;101179.81;5022133;28;20577;-82
2023/09/28 05:48:06;;;;;;;5.20;3.30;;;;;;;19.05;40.92;101190.91;5021354;28;20048;-82
2023/09/28 05:50:34;;;;;;;5.43;3.50;;;;;;;19.03;40.92;101190.22;5022852;28;20501;-82
2023/09/28 05:53:02;;;;;;;5.00;3.70;;;;;;;19.02;40.82;101194.91;5039079;28;20051;-82
2023/09/28 05:55:31;;;;;;;6.50;3.47;;;;;;;19.04;40.63;101208.59;5040061;28;20049;-80
2023/09/28 05:57:59;;;;;;;7.25;3.72;;;;;;;19.02;41.14;101214.34;5021874;28;20121;-80
2023/09/28 06:00:27;;;;;;;5.72;3.83;;;;;;;19.01;40.70;101225.59;5020250;28;21228;-81
2023/09/28 06:02:55;;;;;;;4.13;3.30;;;;;;;19.01;40.95;101228.38;5021605;28;20148;-82
2023/09/28 06:05:23;;;;;;;5.85;3.58;;;;;;;19.01;40.99;101245.03;5021720;28;20053;-80
2023/09/28 06:07:51;;;;;;;5.10;3.38;;;;;;;19.01;41.12;101239.47;5037267;28;20052;-80
2023/09/28 06:10:19;;;;;;;5.20;3.58;;;;;;;19.01;40.81;101243.09;5020144;28;20113;-80
2023/09/28 06:12:49;;;;;;;5.95;3.83;;;;;;;19.03;41.28;101240.16;5019743;28;20064;-80
2023/09/28 06:15:17;;;;;;;5.10;3.90;;;;;;;18.99;41.43;101247.09;5034647;28;20428;-80
2023/09/28 06:17:45;;;;;;;5.68;3.85;;;;;;;18.99;41.52;101242.41;5017791;28;20053;-82
2023/09/28 06:20:13;;;;;;;7.40;3.90;;;;;;;18.98;41.12;101242.59;5034628;28;20049;-80
2023/09/28 06:22:41;;;;;;;5.15;3.85;;;;;;;18.97;41.39;101249.19;5019025;28;20057;-82
2023/09/28 06:25:10;;;;;;;6.03;3.90;;;;;;;18.96;41.42;101255.81;5036022;28;20072;-82
2023/09/28 06:27:39;;;;;;;5.88;3.70;;;;;;;18.94;41.36;101258.75;5032599;28;20121;-82
2023/09/28 06:30:10;;;;;;;5.65;3.88;;;;;;;18.97;41.68;101261.16;5032746;28;20121;-82
2023/09/28 06:32:38;;;;;;;6.07;3.80;;;;;;;18.95;41.35;101267.94;5024835;28;20523;-82
2023/09/28 06:35:07;;;;;;;6.72;3.85;;;;;;;18.96;41.92;101264.13;5019423;28;20143;-83
2023/09/28 06:37:37;;;;;;;6.07;4.00;;;;;;;18.96;41.90;101261.34;5018691;28;20053;-78
2023/09/28 06:40:06;;;;;;;5.53;4.32;;;;;;;18.99;42.05;101263.75;5026003;28;20132;-80
2023/09/28 06:42:34;;;;;;;7.03;4.50;;;;;;;19.02;42.26;101258.72;5028704;28;20125;-81
2023/09/28 06:45:06;;;;;;;6.55;4.10;;;;;;;19.11;42.55;101270.63;5023704;28;20041;-81
2023/09/28 06:47:35;;;;;;;7.07;4.20;;;;;;;19.19;42.58;101270.59;5020749;28;20045;-80
2023/09/28 06:50:09;;;;;;;7.15;4.20;;;;;;;19.24;43.00;101273.72;5027884;28;20060;-80
2023/09/28 06:52:37;;;;;;;6.25;4.32;;;;;;;19.36;42.56;101271.41;5029271;28;20520;-81
2023/09/28 06:55:07;;;;;;;6.85;4.55;;;;;;;19.46;42.85;101286.78;5034504;28;20042;-81
2023/09/28 06:57:35;;;;;;;5.93;4.55;;;;;;;19.58;43.11;101295.56;5053309;28;20059;-81
2023/09/28 07:00:06;;;;;;;6.30;4.03;;;;;;;19.72;42.83;101303.09;5058552;28;20049;-80
2023/09/28 07:02:35;;;;;;;7.18;4.40;;;;;;;19.85;42.58;101306.16;5049778;28;20053;-79
2023/09/28 07:05:04;;;;;;;6.13;4.47;;;;;;;20.00;42.75;101300.69;5032788;28;20053;-81
2023/09/28 07:07:32;;;;;;;5.95;4.18;;;;;;;20.12;42.12;101304.75;5027730;28;20497;-81
2023/09/28 07:10:00;;;;;;;6.38;4.43;;;;;;;20.25;42.01;101301.34;5032523;28;20136;-81
2023/09/28 07:12:28;;;;;;;7.53;4.25;;;;;;;20.37;41.83;101297.91;5030689;28;20053;-81
2023/09/28 07:14:56;;;;;;;5.07;3.85;;;;;;;20.48;41.90;101293.81;5047262;28;20041;-82
2023/09/28 07:17:25;;;;;;;6.80;4.30;;;;;;;20.59;41.64;101292.53;5035451;28;20045;-81
2023/09/28 07:19:54;;;;;;;6.25;4.40;;;;;;;20.72;41.17;101299.16;5033686;28;20045;-80
2023/09/28 07:22:23;;;;;;;6.47;4.40;;;;;;;20.80;41.25;101300.13;5033252;28;20126;-81
2023/09/28 07:24:51;;;;;;;6.60;4.15;;;;;;;20.91;41.18;101308.00;5040134;28;20052;-80
2023/09/28 07:27:19;;;;;;;5.50;3.97;;;;;;;21.01;40.94;101316.94;5034896;28;20050;-81
2023/09/28 07:29:48;;;;;;;6.68;4.15;;;;;;;21.10;41.23;101308.31;5020630;28;20121;-81
2023/09/28 07:32:16;;;;;;;6.00;4.15;;;;;;;21.19;40.81;101313.78;5025376;28;20612;-81
2023/09/28 07:34:45;;;;;;;7.30;4.32;;;;;;;21.29;40.96;101315.22;5025860;28;20087;-81
2023/09/28 07:37:15;;;;;;;6.82;4.18;;;;;;;21.39;40.81;101324.13;5031305;28;20095;-81
2023/09/28 07:39:46;;;;;;;5.88;4.15;;;;;;;21.47;40.47;101321.22;5031403;28;20053;-78
2023/09/28 07:42:14;;;;;;;6.00;3.92;;;;;;;21.57;40.28;101325.63;5040091;28;20064;-82
2023/09/28 07:44:43;;;;;;;7.60;4.00;;;;;;;21.65;40.51;101331.97;5024715;28;20054;-81
2023/09/28 07:47:11;;;;;;;5.38;3.42;;;;;;;21.74;40.17;101339.13;5038907;28;20740;-79
2023/09/28 07:49:39;;;;;;;4.82;3.47;;;;;;;21.83;40.02;101349.09;5030862;28;20131;-80
2023/09/28 07:52:08;;;;;;;5.22;3.45;;;;;;;21.91;39.83;101344.50;5030999;28;20125;-81
2023/09/28 07:54:39;;;;;;;5.18;3.50;;;;;;;22.00;39.66;101349.75;5027134;28;20061;-81
2023/09/28 07:57:07;;;;;;;5.45;3.30;;;;;;;22.04;39.54;101359.44;5025229;28;20053;-81
2023/09/28 07:59:35;;;;;;;4.57;3.25;;;;;;;22.10;39.32;101357.78;5016957;28;20116;-79
2023/09/28 08:02:04;;;;;;;4.55;3.22;;;;;;;22.13;39.21;101357.38;5018303;28;20436;-81
2023/09/28 08:04:32;;;;;;;4.32;2.95;;;;;;;22.16;39.16;101345.84;5019962;28;20072;-81
2023/09/28 08:07:00;;;;;;;4.57;3.20;;;;;;;22.18;38.88;101350.16;5017379;28;20530;-80
2023/09/28 08:09:28;;;;;;;4.82;3.17;;;;;;;22.19;39.07;101343.50;5020183;28;20096;-80
2023/09/28 08:11:58;;;;;;;6.20;3.65;;;;;;;22.21;39.25;101340.53;5018152;28;20045;-81
2023/09/28 08:14:29;;;;;;;6.60;3.58;;;;;;;22.19;39.03;101337.06;5027424;28;20050;-80
2023/09/28 08:16:57;;;;;;;4.82;2.70;;;;;;;22.20;38.79;101333.22;5022885;28;20076;-80
2023/09/28 08:19:25;;;;;;;5.25;3.10;;;;;;;22.18;39.00;101336.19;5025284;28;20197;-80
2023/09/28 08:21:55;;;;;;;4.47;2.70;;;;;;;22.18;38.98;101335.34;5029739;28;20726;-81
2023/09/28 08:24:23;;;;;;;5.05;2.97;;;;;;;22.17;39.02;101325.28;5028123;28;20049;-81
2023/09/28 08:26:51;;;;;;;4.75;2.83;;;;;;;22.16;39.07;101334.69;5028281;28;20049;-81
2023/09/28 08:29:21;;;;;;;4.68;3.03;;;;;;;22.14;38.86;101334.88;5029775;28;20119;-81
2023/09/28 08:31:49;;;;;;;5.25;2.80;;;;;;;22.12;38.81;101350.09;5031116;28;20401;-80
2023/09/28 08:34:17;;;;;;;4.80;3.17;;;;;;;22.10;38.89;101347.50;5032927;28;20053;-82
2023/09/28 08:37:04;;;;;;;4.70;2.92;;;;;;;22.05;39.05;101355.59;5032484;28;20051;-80
2023/09/28 08:39:32;;;;;;;4.72;2.90;;;;;;;22.03;38.79;101357.72;5030322;28;20034;-81
2023/09/28 08:42:02;;;;;;;5.38;2.80;;;;;;;22.02;38.89;101366.25;5031267;28;20128;-81
2023/09/28 08:44:32;;;;;;;5.50;2.65;;;;;;;22.00;39.01;101371.19;5032642;28;20046;-80
2023/09/28 08:47:01;;;;;;;4.43;2.30;;;;;;;21.95;39.00;101374.56;5063687;28;21219;-80
2023/09/28 08:49:32;;;;;;;6.10;3.00;;;;;;;21.92;39.02;101376.88;5054174;28;20117;-80
2023/09/28 08:52:01;;;;;;;4.43;2.40;;;;;;;21.92;39.04;101382.47;5046878;28;20125;-81
2023/09/28 08:54:30;;;;;;;7.47;2.72;;;;;;;21.87;39.27;101381.09;5035070;28;20061;-81
2023/09/28 08:57:00;;;;;;;4.43;2.55;;;;;;;21.88;39.32;101387.53;5029625;28;20056;-81
2023/09/28 08:59:30;;;;;;;5.15;2.47;;;;;;;21.87;39.28;101389.44;5044577;28;20042;-80
2023/09/28 09:02:00;;;;;;;5.80;2.55;;;;;;;21.87;39.49;101388.56;5033460;28;20122;-80
2023/09/28 09:04:28;;;;;;;4.75;2.70;;;;;;;21.85;39.66;101390.69;5050412;28;20049;-80
2023/09/28 09:06:58;;;;;;;6.07;2.80;;;;;;;21.87;39.58;101394.16;5031256;28;20056;-80
2023/09/28 09:09:28;;;;;;;5.15;2.50;;;;;;;21.90;39.62;101388.19;5038541;28;20076;-80
2023/09/28 09:11:58;;;;;;;4.97;2.40;;;;;;;21.93;39.96;101396.22;5036904;28;20055;-79
2023/09/28 09:14:28;;;;;;;4.43;2.60;;;;;;;21.97;39.55;101391.94;5035167;28;20072;-80
2023/09/28 09:16:56;;;;;;;4.07;2.35;;;;;;;21.98;39.62;101399.25;5034564;28;20057;-80
2023/09/28 09:19:30;;;;;;;5.10;2.33;;;;;;;22.04;39.19;101392.03;5036725;28;20110;-79
2023/09/28 09:21:58;;;;;;;6.90;2.65;;;;;;;22.02;39.37;101402.50;5032872;28;20037;-80
2023/09/28 09:24:26;;;;;;;5.05;2.67;;;;;;;22.05;39.34;101404.91;5029986;28;20052;-80
2023/09/28 09:26:55;;;;;;;5.43;2.60;;;;;;;22.06;39.11;101403.84;5025455;28;20041;-80
2023/09/28 09:29:24;;;;;;;4.28;2.40;;;;;;;22.06;39.02;101410.28;5030305;28;21154;-79
2023/09/28 09:31:52;;;;;;;5.25;2.33;;;;;;;22.07;39.13;101411.16;5049433;28;20056;-80
2023/09/28 09:34:22;;;;;;;5.22;2.60;;;;;;;22.08;39.15;101405.38;5037769;28;20060;-80
2023/09/28 09:36:56;;;;;;;5.45;2.85;;;;;;;22.11;39.32;101406.88;5047644;28;20591;-82
2023/09/28 09:39:26;;;;;;;4.72;2.55;;;;;;;22.08;38.98;101408.16;5035845;28;20063;-81
2023/09/28 09:41:55;;;;;;;4.68;2.70;;;;;;;22.08;38.87;101416.53;5036776;28;20140;-81
2023/09/28 09:44:25;;;;;;;5.25;2.70;;;;;;;22.09;39.05;101420.19;5031656;28;20083;-81
2023/09/28 09:46:55;;;;;;;5.20;2.50;;;;;;;22.09;39.06;101409.03;5025409;28;20103;-81
2023/09/28 09:49:24;;;;;;;4.57;2.42;;;;;;;22.09;39.00;101409.03;5031218;28;20045;-81
2023/09/28 09:51:54;;;;;;;4.30;2.40;;;;;;;22.09;39.06;101403.47;5031375;28;20081;-80
2023/09/28 09:54:22;;;;;;;4.45;2.40;;;;;;;22.06;39.22;101403.84;5032238;28;20077;-81
2023/09/28 09:56:52;;;;;;;3.97;2.30;;;;;;;22.07;39.13;101403.66;5031835;28;21189;-81
2023/09/28 09:59:22;;;;;;;5.88;2.55;;;;;;;22.08;38.81;101398.94;5032516;28;20099;-82
2023/09/28 10:01:53;;;;;;;4.80;2.20;;;;;;;22.07;38.89;101398.06;5047831;28;21029;-81
2023/09/28 10:04:26;;;;;;;6.43;2.40;;;;;;;22.08;39.07;101404.53;5035908;28;20042;-81
2023/09/28 10:07:00;;;;;;;4.53;2.17;;;;;;;22.09;38.54;101411.81;5050859;28;20056;-81
2023/09/28 10:09:28;;;;;;;5.00;2.30;;;;;;;22.08;38.72;101415.66;5038647;28;20119;-81
2023/09/28 10:11:57;;;;;;;5.32;2.53;;;;;;;22.09;38.80;101412.69;5037468;28;20059;-81
2023/09/28 10:14:26;;;;;;;6.28;2.22;;;;;;;22.08;38.98;101408.16;5034264;28;20062;-81
2023/09/28 10:16:55;;;;;;;5.05;2.30;;;;;;;22.10;38.88;101416.31;5051091;28;20627;-81
2023/09/28 10:19:25;;;;;;;5.63;2.47;;;;;;;22.09;38.92;101415.47;5038639;28;20053;-80
2023/09/28 10:21:57;;;;;;;4.65;2.50;;;;;;;22.13;38.68;101413.16;5038530;28;20049;-81
2023/09/28 10:24:31;;;;;;;5.07;2.50;;;;;;;22.11;38.59;101413.34;5036846;28;20061;-83
2023/09/28 10:27:08;;;;;;;5.65;2.40;;;;;;;22.13;38.70;101411.22;5039097;28;20135;-84
2023/09/28 10:29:37;;;;;;;4.32;2.33;;;;;;;22.10;38.71;101411.59;5039935;28;20048;-84
2023/09/28 10:32:15;;;;;;;6.18;2.40;;;;;;;22.15;38.17;101413.81;5049986;28;20037;-84
2023/09/28 10:34:46;;;;;;;5.43;2.67;;;;;;;22.13;38.72;101413.16;5046240;28;20278;-83
2023/09/28 10:37:19;;;;;;;4.28;2.20;;;;;;;22.16;38.61;101405.25;5048425;28;20061;-83
2023/09/28 10:39:57;;;;;;;5.22;2.30;;;;;;;22.17;38.43;101404.22;5061602;28;20120;-84
2023/09/28 10:42:26;;;;;;;5.38;2.45;;;;;;;22.16;39.07;101407.19;5045994;28;20072;-83
2023/09/28 10:44:56;;;;;;;4.10;2.30;;;;;;;22.17;38.77;101407.00;5038884;28;20073;-83
2023/09/28 10:47:25;;;;;;;5.20;2.45;;;;;;;22.20;38.42;101416.88;5034735;28;20081;-83
2023/09/28 10:49:59;;;;;;;5.40;2.47;;;;;;;22.24;38.59;101423.78;5055603;28;20045;-84
2023/09/28 10:52:30;;;;;;;4.95;2.72;;;;;;;22.22;38.69;101417.53;5034362;28;20529;-84
2023/09/28 10:54:58;;;;;;;4.30;2.78;;;;;;;22.20;38.70;101414.94;5035097;28;20037;-82
2023/09/28 10:57:31;;;;;;;6.07;2.85;;;;;;;22.24;38.59;101416.28;5049476;28;20057;-83
2023/09/28 11:00:00;;;;;;;6.13;2.90;;;;;;;22.22;38.62;101415.63;5035298;28;20048;-83
2023/09/28 11:02:28;;;;;;;4.82;2.80;;;;;;;22.24;38.47;101409.84;5033153;28;20071;-83
2023/09/28 11:05:00;;;;;;;4.78;2.78;;;;;;;22.24;38.80;101415.41;5050839;28;20458;-84
2023/09/28 11:07:30;;;;;;;5.28;2.42;;;;;;;22.25;38.74;101404.06;5034432;28;20650;-84
2023/09/28 11:09:58;;;;;;;5.63;2.92;;;;;;;22.21;38.45;101405.53;5038760;28;20068;-84
2023/09/28 11:12:28;;;;;;;5.25;2.67;;;;;;;22.25;38.52;101400.44;5039634;28;20049;-84
2023/09/28 11:14:58;;;;;;;7.03;3.20;;;;;;;22.24;38.41;101404.28;5057362;28;20040;-84
2023/09/28 11:17:27;;;;;;;7.03;3.97;;;;;;;22.25;38.41;101394.84;5035801;28;20045;-83
2023/09/28 11:19:56;;;;;;;7.88;4.18;;;;;;;22.23;38.31;101388.59;5037548;28;20129;-84
2023/09/28 11:22:24;;;;;;;6.63;3.65;;;;;;;22.25;38.33;101398.50;5036375;28;20048;-84
2023/09/28 11:24:54;;;;;;;6.15;2.85;;;;;;;22.26;38.61;101394.63;5039009;28;20431;-83
2023/09/28 11:27:22;;;;;;;6.53;2.80;;;;;;;22.25;38.33;101394.84;5035487;28;20041;-83
2023/09/28 11:29:55;;;;;;;4.82;2.33;;;;;;;22.27;38.25;101393.56;5037642;28;20133;-83
2023/09/28 11:32:24;;;;;;;4.97;2.17;;;;;;;22.24;38.30;101396.78;5036379;28;20053;-83
2023/09/28 11:34:53;;;;;;;6.30;2.67;;;;;;;22.27;38.32;101396.34;5036555;28;20095;-84